Terminal Aerodrome Forecast
Issued by NWS

Home | Current Version | Previous Version | Text Only | Print | Product List | Glossary On
Versions: 1 2 3 4 5 6 7 8 9 10 11 12 13 14 15 16 17 18 19 20 21 22 23 24
314
FTUS43 KDLH 240525
TAFHYR
TAF
KHYR 240525Z 2406/2506 15008KT P6SM VCSH SCT027 BKN035
     FM240800 18007KT P6SM VCSH BKN021 OVC026
      TEMPO 2410/2413 2SM -SHRA BR BKN012
     FM241400 23006KT P6SM VCSH BKN026
     FM242000 26008KT P6SM SCT026 BKN035
     FM242300 26004KT P6SM SCT035=

USA.gov is the U.S. government's official web portal to all federal, state and local government web resources and services.